Time;durP1;ratioP1;P1;durP2;ratioP2;P2;SDS_P1;SDS_P2;PMS_P1;PMS_P2;Temp;Humidity;BMP_temperature;BMP_pressure;BME280_temperature;BME280_humidity;BME280_pressure;Samples;Min_cycle;Max_cycle;Signal;HPM_P1;HPM_P2
2022/01/16 00:00:40;;;;;;;19.08;9.07;;;-3.60;99.90;;;;;;5077737;28;20024;-76
2022/01/16 00:05:54;;;;;;;18.83;9.02;;;-3.60;99.90;;;;;;5096263;28;20046;-76
2022/01/16 00:08:20;;;;;;;20.38;8.90;;;-3.60;99.90;;;;;;5096054;28;20028;-76
2022/01/16 00:10:46;;;;;;;18.13;8.13;;;-3.70;99.90;;;;;;5096193;28;20353;-76
2022/01/16 00:13:11;;;;;;;18.92;8.55;;;-3.70;99.90;;;;;;5095594;28;20028;-76
2022/01/16 00:15:37;;;;;;;18.67;8.88;;;-3.70;99.90;;;;;;5095903;28;20074;-76
2022/01/16 00:20:29;;;;;;;18.20;8.77;;;-3.80;99.90;;;;;;5095543;28;20537;-76
2022/01/16 00:22:56;;;;;;;22.33;9.40;;;-3.80;99.90;;;;;;5095494;28;20368;-76
2022/01/16 00:25:22;;;;;;;22.13;8.98;;;-3.80;99.90;;;;;;5095803;28;20020;-76
2022/01/16 00:27:48;;;;;;;18.80;8.35;;;-3.80;99.90;;;;;;5095614;28;20059;-77
2022/01/16 00:30:15;;;;;;;21.45;9.63;;;-3.80;99.90;;;;;;5095675;28;20055;-77
2022/01/16 00:32:40;;;;;;;23.98;9.80;;;-3.80;99.90;;;;;;5077130;28;20034;-77
2022/01/16 00:35:07;;;;;;;23.13;8.85;;;-3.80;99.90;;;;;;5095426;28;20106;-77
2022/01/16 00:37:32;;;;;;;25.67;10.30;;;-3.90;99.90;;;;;;5076949;28;20427;-77
2022/01/16 00:39:58;;;;;;;23.38;9.95;;;-3.90;99.90;;;;;;5077345;28;20111;-77
2022/01/16 00:42:24;;;;;;;21.23;9.98;;;-3.90;99.90;;;;;;5076663;28;20503;-77
2022/01/16 00:44:49;;;;;;;21.75;9.50;;;-3.90;99.90;;;;;;5076808;28;20027;-77
2022/01/16 00:47:16;;;;;;;17.45;7.93;;;-4.00;99.90;;;;;;5076778;28;20439;-77
2022/01/16 00:49:42;;;;;;;21.45;9.63;;;-4.00;99.90;;;;;;5095182;28;20020;-77
2022/01/16 00:52:09;;;;;;;24.65;9.77;;;-4.00;99.90;;;;;;5095511;28;20027;-77
2022/01/16 00:54:35;;;;;;;21.13;8.95;;;-4.00;99.90;;;;;;5077253;28;20016;-77
2022/01/16 00:57:01;;;;;;;21.83;9.70;;;-4.00;99.90;;;;;;5094983;28;20024;-76
2022/01/16 00:59:27;;;;;;;21.17;10.00;;;-4.00;99.90;;;;;;5094814;28;20360;-76
2022/01/16 01:01:52;;;;;;;24.38;10.52;;;-4.00;99.90;;;;;;5093588;28;20034;-76
2022/01/16 01:04:18;;;;;;;27.85;11.55;;;-4.00;99.90;;;;;;5082042;28;20028;-76
2022/01/16 01:06:47;;;;;;;25.15;11.82;;;-4.10;99.90;;;;;;5092707;28;20028;-76
2022/01/16 01:09:13;;;;;;;21.23;9.38;;;-4.10;99.90;;;;;;5092886;28;20349;-76
2022/01/16 01:11:40;;;;;;;20.92;10.15;;;-4.20;99.90;;;;;;5094956;28;20024;-76
2022/01/16 01:17:08;;;;;;;16.65;8.10;;;-4.20;99.90;;;;;;5092880;28;20103;-76
2022/01/16 01:19:31;;;;;;;20.40;9.32;;;-4.20;99.90;;;;;;5088451;28;20373;-76
2022/01/16 01:21:58;;;;;;;18.27;7.93;;;-4.20;99.90;;;;;;5095063;28;20020;-76
2022/01/16 01:24:25;;;;;;;19.75;8.02;;;-4.20;99.90;;;;;;5094350;28;20095;-76
2022/01/16 01:27:34;;;;;;;17.98;7.95;;;-4.30;99.90;;;;;;5094517;28;20468;-76
2022/01/16 01:29:46;;;;;;;19.30;8.98;;;-4.30;99.90;;;;;;5091192;28;20036;-77
2022/01/16 01:32:12;;;;;;;20.67;9.02;;;-4.30;99.90;;;;;;5092692;28;20524;-76
2022/01/16 01:34:38;;;;;;;17.65;8.30;;;-4.30;99.90;;;;;;5094319;28;20102;-76
2022/01/16 01:37:04;;;;;;;25.83;10.63;;;-4.30;99.90;;;;;;5094381;28;20099;-76
2022/01/16 01:39:30;;;;;;;24.80;10.75;;;-4.30;99.90;;;;;;5094340;28;20141;-76
2022/01/16 01:42:05;;;;;;;21.05;9.48;;;-4.30;99.90;;;;;;5094291;28;20016;-76
2022/01/16 01:52:43;;;;;;;30.27;10.68;;;-4.40;99.90;;;;;;5093449;28;20101;-76
2022/01/16 01:55:09;;;;;;;25.60;11.68;;;-4.40;99.90;;;;;;5092506;28;20476;-76
2022/01/16 01:57:35;;;;;;;31.30;12.38;;;-4.50;99.90;;;;;;5092407;28;20024;-77
2022/01/16 02:00:01;;;;;;;33.72;13.38;;;-4.50;99.90;;;;;;5093797;28;20103;-76
2022/01/16 02:02:31;;;;;;;44.70;15.15;;;-4.50;99.90;;;;;;5094143;28;20361;-76
2022/01/16 02:04:57;;;;;;;39.13;16.17;;;-4.60;99.90;;;;;;5093795;28;20398;-76
2022/01/16 02:07:23;;;;;;;42.78;15.75;;;-4.60;99.90;;;;;;5093860;28;20028;-77
2022/01/16 02:09:48;;;;;;;31.42;12.20;;;-4.60;99.90;;;;;;5093550;28;20032;-76
2022/01/16 02:12:14;;;;;;;31.58;12.88;;;-4.70;99.90;;;;;;5094152;28;20028;-76
2022/01/16 02:14:56;;;;;;;24.48;11.32;;;-4.80;99.90;;;;;;5093702;28;20020;-76
2022/01/16 02:28:42;;;;;;;23.25;10.85;;;-4.80;99.90;;;;;;5093643;28;20082;-77
2022/01/16 02:31:24;;;;;;;26.63;9.60;;;-4.80;99.90;;;;;;5094007;28;20028;-76
2022/01/16 02:36:45;;;;;;;28.95;11.23;;;-4.70;99.90;;;;;;5093706;28;20085;-76
2022/01/16 02:39:13;;;;;;;27.45;10.68;;;-4.70;99.90;;;;;;5093465;28;20016;-76
2022/01/16 02:41:42;;;;;;;28.27;11.30;;;-4.70;99.90;;;;;;5093736;28;20103;-76
2022/01/16 02:44:21;;;;;;;24.60;10.85;;;-4.70;99.90;;;;;;5093607;28;20042;-76
2022/01/16 02:46:48;;;;;;;34.33;11.63;;;-4.70;99.90;;;;;;5093624;28;20024;-76
2022/01/16 02:49:18;;;;;;;36.50;12.95;;;-4.70;99.90;;;;;;5093440;28;20020;-76
2022/01/16 02:51:44;;;;;;;31.77;11.70;;;-4.70;99.90;;;;;;5093728;28;20025;-76
2022/01/16 02:54:10;;;;;;;29.67;11.65;;;-4.70;99.90;;;;;;5092010;28;20275;-76
2022/01/16 02:56:37;;;;;;;26.33;10.80;;;-4.80;99.90;;;;;;5091922;28;20020;-76
2022/01/16 02:59:03;;;;;;;30.60;11.48;;;-4.80;99.90;;;;;;5093213;28;20024;-76
2022/01/16 03:01:28;;;;;;;23.48;10.60;;;-4.80;99.90;;;;;;5093216;28;20039;-76
2022/01/16 03:03:54;;;;;;;28.40;11.38;;;-4.80;99.90;;;;;;5093353;28;20038;-76
2022/01/16 03:06:20;;;;;;;25.80;10.82;;;-4.80;99.90;;;;;;5095908;28;20484;-76
2022/01/16 03:08:45;;;;;;;26.45;10.75;;;-4.80;99.90;;;;;;5096811;28;20475;-76
2022/01/16 03:14:04;;;;;;;22.27;9.38;;;-4.80;99.90;;;;;;5095798;28;20036;-76
2022/01/16 03:16:30;;;;;;;21.58;9.55;;;-4.80;99.90;;;;;;5096906;28;20024;-76
2022/01/16 03:21:54;;;;;;;21.20;9.43;;;-4.90;99.90;;;;;;5096699;28;20433;-76
2022/01/16 03:24:21;;;;;;;27.42;10.90;;;-4.90;99.90;;;;;;5096662;28;20031;-76
2022/01/16 03:26:47;;;;;;;31.02;11.63;;;-4.90;99.90;;;;;;5096713;28;20099;-76
2022/01/16 03:29:13;;;;;;;26.48;10.43;;;-4.90;99.90;;;;;;5096876;28;20047;-76
2022/01/16 03:31:38;;;;;;;32.38;11.63;;;-4.90;99.90;;;;;;5096604;28;20501;-76
2022/01/16 03:34:04;;;;;;;30.75;11.55;;;-4.90;99.90;;;;;;5096884;28;20028;-76
2022/01/16 03:36:30;;;;;;;28.33;11.55;;;-5.00;99.90;;;;;;5096496;28;20052;-77
2022/01/16 03:38:56;;;;;;;25.55;10.15;;;-5.00;99.90;;;;;;5096874;28;20099;-77
2022/01/16 03:41:21;;;;;;;26.95;10.15;;;-5.00;99.90;;;;;;5096257;28;20025;-77
2022/01/16 03:43:47;;;;;;;25.88;9.13;;;-5.00;99.90;;;;;;5096216;28;20031;-77
2022/01/16 03:46:13;;;;;;;26.00;8.63;;;-5.10;99.90;;;;;;5096229;28;20023;-77
2022/01/16 03:48:39;;;;;;;20.70;7.80;;;-5.10;99.90;;;;;;5095924;28;20153;-77
2022/01/16 03:51:05;;;;;;;21.33;7.85;;;-5.10;99.90;;;;;;5096204;28;20028;-77
2022/01/16 03:53:30;;;;;;;15.20;6.03;;;-5.10;99.90;;;;;;5094810;28;20028;-77
2022/01/16 03:55:56;;;;;;;15.88;6.63;;;-5.10;99.90;;;;;;5096300;28;20025;-77
2022/01/16 03:58:22;;;;;;;15.48;6.35;;;-5.10;99.90;;;;;;5094594;28;20016;-77
2022/01/16 04:00:48;;;;;;;17.38;7.20;;;-5.10;99.90;;;;;;5094643;28;20028;-77
2022/01/16 04:03:13;;;;;;;19.60;8.05;;;-5.10;99.90;;;;;;5095879;28;20487;-77
2022/01/16 04:05:39;;;;;;;26.52;9.10;;;-5.10;99.90;;;;;;5095992;28;20031;-76
2022/01/16 04:08:05;;;;;;;20.98;9.13;;;-5.10;99.90;;;;;;5095805;28;20103;-76
2022/01/16 04:10:31;;;;;;;20.75;8.95;;;-5.10;99.90;;;;;;5095655;28;20046;-77
2022/01/16 04:12:57;;;;;;;22.25;8.55;;;-5.10;99.90;;;;;;5095617;28;20099;-76
2022/01/16 04:15:31;;;;;;;21.67;9.43;;;-5.10;99.90;;;;;;5095466;28;20078;-77
2022/01/16 04:17:57;;;;;;;25.17;9.70;;;-5.10;99.90;;;;;;5094108;28;20119;-76
2022/01/16 04:20:23;;;;;;;23.08;7.43;;;-5.20;99.90;;;;;;5095528;28;20027;-76
2022/01/16 04:22:49;;;;;;;21.27;7.80;;;-5.30;99.90;;;;;;5095675;28;20032;-76
2022/01/16 04:25:15;;;;;;;15.15;7.13;;;-5.40;99.90;;;;;;5095835;28;20039;-76
2022/01/16 04:27:41;;;;;;;16.00;7.00;;;-5.40;99.90;;;;;;5095282;28;20107;-76
2022/01/16 04:30:07;;;;;;;23.25;7.93;;;-5.40;99.90;;;;;;5095489;28;20038;-76
2022/01/16 04:32:33;;;;;;;24.13;9.07;;;-5.50;99.90;;;;;;5095138;28;20019;-77
2022/01/16 04:34:59;;;;;;;24.42;9.27;;;-5.50;99.90;;;;;;5095299;28;20472;-77
2022/01/16 04:37:24;;;;;;;17.17;7.40;;;-5.50;99.90;;;;;;5093843;28;20055;-77
2022/01/16 04:39:52;;;;;;;18.92;7.82;;;-5.50;99.90;;;;;;5095721;28;20020;-76
2022/01/16 04:45:04;;;;;;;23.88;8.73;;;-5.50;99.90;;;;;;5095406;28;20039;-76
2022/01/16 04:47:30;;;;;;;17.67;8.20;;;-5.50;99.90;;;;;;5094892;28;20077;-77
2022/01/16 04:49:56;;;;;;;19.33;7.78;;;-5.50;99.90;;;;;;5095094;28;20035;-77
2022/01/16 04:52:22;;;;;;;22.13;8.77;;;-5.50;99.90;;;;;;5094862;28;20028;-77
2022/01/16 04:54:47;;;;;;;20.95;8.65;;;-5.50;99.90;;;;;;5093629;28;20024;-76
2022/01/16 04:57:13;;;;;;;22.55;9.48;;;-5.50;99.90;;;;;;5094799;28;20032;-77
2022/01/16 04:59:40;;;;;;;27.75;10.90;;;-5.50;99.90;;;;;;5093562;28;20028;-77
2022/01/16 05:02:05;;;;;;;25.40;10.68;;;-5.60;99.90;;;;;;5094709;28;20031;-77
2022/01/16 05:04:31;;;;;;;30.83;10.85;;;-5.60;99.90;;;;;;5094669;28;20032;-77
2022/01/16 05:06:57;;;;;;;25.58;9.93;;;-5.60;99.90;;;;;;5094662;28;20091;-77
2022/01/16 05:09:23;;;;;;;17.63;8.55;;;-5.70;99.90;;;;;;5095096;28;20103;-77
2022/01/16 05:11:55;;;;;;;19.67;8.52;;;-5.70;99.90;;;;;;5093501;28;20028;-77
2022/01/16 05:17:05;;;;;;;22.48;8.20;;;-5.70;99.90;;;;;;5094791;28;20096;-77
2022/01/16 05:19:31;;;;;;;18.63;7.72;;;-5.70;99.90;;;;;;5093213;28;20455;-77
2022/01/16 05:21:56;;;;;;;15.43;7.30;;;-5.70;99.90;;;;;;5094515;28;20048;-76
2022/01/16 05:24:24;;;;;;;16.70;7.40;;;-5.70;99.90;;;;;;5093221;28;20452;-76
2022/01/16 05:26:50;;;;;;;14.15;6.03;;;-5.70;99.90;;;;;;5092950;28;20093;-76
2022/01/16 05:29:16;;;;;;;13.38;5.47;;;-5.70;99.90;;;;;;5094280;28;20024;-76
2022/01/16 05:31:44;;;;;;;12.32;5.53;;;-5.60;99.90;;;;;;5094158;28;20129;-76
2022/01/16 05:34:15;;;;;;;13.05;5.55;;;-5.60;99.90;;;;;;5094188;28;20071;-76
2022/01/16 05:36:41;;;;;;;10.95;4.45;;;-5.60;99.90;;;;;;5092960;28;20017;-76
2022/01/16 05:39:07;;;;;;;13.32;4.88;;;-5.60;99.90;;;;;;5094112;28;20028;-76
2022/01/16 05:41:32;;;;;;;14.90;5.70;;;-5.60;99.90;;;;;;5092892;28;20111;-76
2022/01/16 05:43:58;;;;;;;13.55;5.25;;;-5.70;99.90;;;;;;5093892;28;20032;-76
2022/01/16 05:46:24;;;;;;;13.55;5.13;;;-5.70;99.90;;;;;;5092590;28;20034;-76
2022/01/16 05:48:50;;;;;;;11.60;4.53;;;-5.70;99.90;;;;;;5093969;28;20133;-76
2022/01/16 05:51:16;;;;;;;9.10;4.03;;;-5.70;99.90;;;;;;5093981;28;20076;-76
2022/01/16 05:53:44;;;;;;;10.75;4.10;;;-5.70;99.90;;;;;;5094176;28;20055;-76
2022/01/16 05:56:11;;;;;;;7.72;3.92;;;-5.70;99.90;;;;;;5093730;28;20099;-76
2022/01/16 05:58:38;;;;;;;7.97;4.03;;;-5.70;99.90;;;;;;5092612;28;20517;-76
2022/01/16 06:01:04;;;;;;;10.27;4.88;;;-5.70;99.90;;;;;;5093799;28;20031;-76
2022/01/16 06:03:30;;;;;;;11.73;4.72;;;-5.60;99.90;;;;;;5092383;28;20032;-76
2022/01/16 06:05:55;;;;;;;11.75;4.60;;;-5.60;99.90;;;;;;5093938;28;20038;-76
2022/01/16 06:08:21;;;;;;;16.88;5.20;;;-5.60;99.90;;;;;;5094024;28;20028;-76
2022/01/16 06:10:47;;;;;;;10.88;4.82;;;-5.60;99.90;;;;;;5093836;28;20027;-76
2022/01/16 06:13:13;;;;;;;11.43;4.97;;;-5.60;99.90;;;;;;5092338;28;20111;-76
2022/01/16 06:15:40;;;;;;;13.85;4.88;;;-5.60;99.90;;;;;;5093803;28;20077;-76
2022/01/16 06:18:09;;;;;;;17.58;7.07;;;-5.70;99.90;;;;;;5093675;28;20040;-76
2022/01/16 06:20:35;;;;;;;19.45;7.10;;;-5.80;99.90;;;;;;5093707;28;20020;-76
2022/01/16 06:23:01;;;;;;;18.55;7.40;;;-5.80;99.90;;;;;;5092542;28;20020;-76
2022/01/16 06:25:27;;;;;;;16.33;7.40;;;-5.80;99.90;;;;;;5092462;28;20400;-76
2022/01/16 06:27:53;;;;;;;17.88;7.78;;;-5.80;99.90;;;;;;5093587;28;20090;-76
2022/01/16 06:30:20;;;;;;;25.48;9.50;;;-5.90;99.90;;;;;;5093666;28;20506;-76
2022/01/16 06:32:46;;;;;;;26.65;8.75;;;-5.80;99.90;;;;;;5093685;28;20024;-76
2022/01/16 06:35:14;;;;;;;20.30;7.90;;;-5.80;99.90;;;;;;5094016;28;20020;-76
2022/01/16 06:37:41;;;;;;;19.08;7.57;;;-5.90;99.90;;;;;;5093669;28;20020;-76
2022/01/16 06:40:07;;;;;;;18.40;6.07;;;-5.90;99.90;;;;;;5095505;28;20021;-76
2022/01/16 06:42:33;;;;;;;14.13;4.95;;;-5.80;99.90;;;;;;5096519;28;20032;-76
2022/01/16 06:44:59;;;;;;;13.20;5.75;;;-5.80;99.90;;;;;;5097579;28;20077;-76
2022/01/16 06:47:25;;;;;;;12.35;4.97;;;-5.80;99.90;;;;;;5098502;28;20410;-76
2022/01/16 06:49:50;;;;;;;14.35;6.00;;;-5.80;99.90;;;;;;5098494;28;20036;-76
2022/01/16 06:52:16;;;;;;;20.00;8.95;;;-5.80;99.90;;;;;;5098093;28;20103;-76
2022/01/16 06:54:42;;;;;;;19.63;7.57;;;-5.70;99.90;;;;;;5097916;28;20023;-77
2022/01/16 06:57:08;;;;;;;15.27;6.45;;;-5.80;99.90;;;;;;5098196;28;20024;-77
2022/01/16 06:59:38;;;;;;;17.00;7.82;;;-5.80;99.90;;;;;;5096777;28;20032;-76
2022/01/16 07:02:07;;;;;;;15.13;6.22;;;-5.90;99.90;;;;;;5097468;28;20145;-76
2022/01/16 07:04:33;;;;;;;15.38;5.60;;;-5.90;99.90;;;;;;5096937;28;20039;-75
2022/01/16 07:06:59;;;;;;;14.70;5.50;;;-5.90;99.90;;;;;;5096919;28;20427;-76
2022/01/16 07:09:25;;;;;;;13.98;5.47;;;-5.90;99.90;;;;;;5095637;28;20028;-76
2022/01/16 07:11:50;;;;;;;12.27;5.70;;;-5.90;99.90;;;;;;5095519;28;20026;-76
2022/01/16 07:14:16;;;;;;;13.60;5.63;;;-6.00;99.90;;;;;;5095466;28;20030;-76
2022/01/16 07:16:42;;;;;;;15.55;5.05;;;-6.00;99.90;;;;;;5097032;28;20081;-76
2022/01/16 07:19:07;;;;;;;16.10;6.82;;;-5.90;99.90;;;;;;5096606;28;20024;-76
2022/01/16 07:21:33;;;;;;;16.45;7.32;;;-6.00;99.90;;;;;;5097034;28;20513;-76
2022/01/16 07:23:59;;;;;;;12.65;7.13;;;-6.00;99.90;;;;;;5096700;28;20437;-76
2022/01/16 07:26:24;;;;;;;16.25;7.72;;;-6.00;99.90;;;;;;5096495;28;20024;-76
2022/01/16 07:28:51;;;;;;;29.15;11.48;;;-6.00;99.90;;;;;;5096527;28;20031;-76
2022/01/16 07:31:17;;;;;;;29.05;12.48;;;-6.00;99.90;;;;;;5096474;28;20510;-76
2022/01/16 07:33:42;;;;;;;36.63;14.05;;;-6.00;99.90;;;;;;5096196;28;20028;-76
2022/01/16 07:36:08;;;;;;;41.70;16.55;;;-5.90;99.90;;;;;;5095192;28;20020;-76
2022/01/16 07:38:34;;;;;;;31.52;15.27;;;-5.90;99.90;;;;;;5096677;28;20020;-76
2022/01/16 07:40:59;;;;;;;36.63;15.98;;;-5.90;99.90;;;;;;5094905;28;20389;-76
2022/01/16 07:43:25;;;;;;;25.60;10.85;;;-5.90;99.90;;;;;;5094975;28;20114;-76
2022/01/16 07:45:51;;;;;;;27.42;11.45;;;-5.80;99.90;;;;;;5096026;28;20024;-76
2022/01/16 07:48:17;;;;;;;40.05;19.55;;;-5.90;99.90;;;;;;5096048;28;20040;-76
2022/01/16 07:50:43;;;;;;;41.72;19.10;;;-5.90;99.90;;;;;;5093765;28;20032;-76
2022/01/16 07:53:09;;;;;;;38.97;16.63;;;-5.90;99.90;;;;;;5095842;28;20496;-76
2022/01/16 07:55:35;;;;;;;37.92;17.25;;;-5.90;99.90;;;;;;5095913;28;20031;-76
2022/01/16 07:58:01;;;;;;;38.95;17.13;;;-5.80;99.90;;;;;;5095770;28;20099;-76
2022/01/16 08:00:27;;;;;;;37.00;16.90;;;-5.80;99.90;;;;;;5094681;28;20026;-76
2022/01/16 08:02:53;;;;;;;33.60;15.60;;;-5.70;99.90;;;;;;5095851;28;20407;-76
2022/01/16 08:05:20;;;;;;;33.45;16.27;;;-5.70;99.90;;;;;;5094358;28;20526;-76
2022/01/16 08:07:46;;;;;;;34.05;14.40;;;-5.70;99.90;;;;;;5094234;28;20072;-75
2022/01/16 08:10:12;;;;;;;31.02;13.10;;;-5.60;99.90;;;;;;5095603;28;20418;-75
2022/01/16 08:12:38;;;;;;;29.05;13.13;;;-5.60;99.90;;;;;;5094225;28;20036;-76
2022/01/16 08:15:05;;;;;;;29.52;12.30;;;-5.60;99.90;;;;;;5095707;28;20487;-76
2022/01/16 08:17:31;;;;;;;29.55;11.38;;;-5.50;99.90;;;;;;5095576;28;20396;-77
2022/01/16 08:19:57;;;;;;;27.13;12.05;;;-5.50;99.90;;;;;;5096175;28;20020;-78
2022/01/16 08:22:23;;;;;;;34.42;14.98;;;-5.40;99.90;;;;;;5096762;28;20028;-78
2022/01/16 08:24:48;;;;;;;31.98;13.80;;;-5.40;99.90;;;;;;5096548;28;20134;-78
2022/01/16 08:27:15;;;;;;;29.65;12.35;;;-5.30;99.90;;;;;;5094591;28;20486;-77
2022/01/16 08:29:42;;;;;;;30.02;11.80;;;-5.30;99.90;;;;;;5095255;28;20030;-77
2022/01/16 08:32:08;;;;;;;23.83;10.73;;;-5.30;99.90;;;;;;5095168;28;20028;-77
2022/01/16 08:34:33;;;;;;;27.42;9.73;;;-5.30;99.90;;;;;;5095361;28;20464;-77
2022/01/16 08:36:59;;;;;;;27.23;11.65;;;-5.30;99.90;;;;;;5095306;28;20032;-77
2022/01/16 08:39:25;;;;;;;32.83;14.93;;;-5.30;99.90;;;;;;5095368;28;20530;-77
2022/01/16 08:41:50;;;;;;;34.40;14.25;;;-5.30;99.90;;;;;;5096064;28;20027;-78
2022/01/16 08:44:16;;;;;;;25.25;10.57;;;-5.30;99.90;;;;;;5094241;28;20089;-77
2022/01/16 08:46:43;;;;;;;31.42;13.60;;;-5.30;99.90;;;;;;5095309;28;20499;-77
2022/01/16 08:49:09;;;;;;;29.05;13.45;;;-5.20;99.90;;;;;;5095120;28;20019;-77
2022/01/16 08:51:35;;;;;;;24.35;11.52;;;-5.20;99.90;;;;;;5093576;28;20115;-77
2022/01/16 08:54:00;;;;;;;23.50;10.60;;;-5.20;99.90;;;;;;5094826;28;20095;-77
2022/01/16 08:56:26;;;;;;;21.08;9.15;;;-5.10;99.90;;;;;;5094724;28;20020;-76
2022/01/16 08:58:52;;;;;;;17.83;8.10;;;-5.10;99.90;;;;;;5094794;28;20027;-76
2022/01/16 09:01:17;;;;;;;16.00;6.13;;;-5.10;99.90;;;;;;5094871;28;20024;-76
2022/01/16 09:03:43;;;;;;;14.15;6.20;;;-5.10;99.90;;;;;;5094079;28;20038;-76
2022/01/16 09:06:09;;;;;;;23.13;10.60;;;-5.20;99.90;;;;;;5093182;28;20392;-76
2022/01/16 09:08:35;;;;;;;28.33;11.48;;;-5.20;99.90;;;;;;5094462;28;20498;-76
2022/01/16 09:11:01;;;;;;;29.95;10.90;;;-5.20;99.90;;;;;;5094375;28;20035;-76
2022/01/16 09:13:27;;;;;;;24.35;9.75;;;-5.20;99.90;;;;;;5094616;28;20016;-76
2022/01/16 09:15:53;;;;;;;26.60;10.45;;;-5.20;99.90;;;;;;5094148;28;20046;-76
2022/01/16 09:18:19;;;;;;;31.33;10.77;;;-5.10;99.90;;;;;;5092913;28;20035;-76
2022/01/16 09:20:46;;;;;;;22.23;10.63;;;-5.10;99.90;;;;;;5094471;28;20016;-76
2022/01/16 09:23:12;;;;;;;27.10;11.07;;;-5.00;99.90;;;;;;5094104;28;20024;-76
2022/01/16 09:25:38;;;;;;;25.45;10.18;;;-5.00;99.90;;;;;;5094394;28;20052;-76
2022/01/16 09:28:05;;;;;;;23.88;10.52;;;-5.00;99.90;;;;;;5092963;28;20034;-76
2022/01/16 09:30:32;;;;;;;24.35;9.90;;;-4.90;99.90;;;;;;5094483;28;20044;-76
2022/01/16 09:32:58;;;;;;;24.30;10.38;;;-4.90;99.90;;;;;;5094307;28;20455;-76
2022/01/16 09:35:24;;;;;;;22.75;9.98;;;-4.80;99.90;;;;;;5094372;28;20024;-76
2022/01/16 09:37:51;;;;;;;19.40;9.13;;;-4.80;99.90;;;;;;5092671;28;20368;-77
2022/01/16 09:40:19;;;;;;;20.85;9.23;;;-4.70;99.90;;;;;;5094196;28;20013;-76
2022/01/16 09:42:47;;;;;;;20.50;9.13;;;-4.60;99.90;;;;;;5093994;28;20020;-77
2022/01/16 09:45:15;;;;;;;17.55;8.07;;;-4.50;99.90;;;;;;5094362;28;20028;-77
2022/01/16 09:47:43;;;;;;;17.05;7.63;;;-4.40;99.90;;;;;;5093855;28;20032;-76
2022/01/16 09:50:11;;;;;;;19.02;7.68;;;-4.30;99.90;;;;;;5093853;28;20154;-77
2022/01/16 09:52:41;;;;;;;17.52;7.05;;;-4.20;99.90;;;;;;5093890;28;20028;-77
2022/01/16 09:55:08;;;;;;;19.05;8.70;;;-4.20;99.90;;;;;;5094038;28;20024;-76
2022/01/16 09:57:34;;;;;;;20.42;8.85;;;-4.10;99.90;;;;;;5092481;28;20499;-76
2022/01/16 10:00:00;;;;;;;30.02;14.20;;;-4.00;99.90;;;;;;5093723;28;20032;-76
2022/01/16 10:02:25;;;;;;;25.95;12.73;;;-3.80;99.90;;;;;;5092473;28;20024;-77
2022/01/16 10:04:53;;;;;;;33.08;15.90;;;-3.80;99.90;;;;;;5094101;28;20036;-76
2022/01/16 10:07:19;;;;;;;84.78;31.77;;;-3.70;99.90;;;;;;5093602;28;20020;-76
2022/01/16 10:10:04;;;;;;;48.58;21.30;;;-3.50;99.90;;;;;;5093780;28;20038;-77
2022/01/16 10:12:29;;;;;;;48.63;21.52;;;-3.50;99.90;;;;;;5093454;28;20499;-77
2022/01/16 10:14:56;;;;;;;38.47;17.48;;;-3.40;99.90;;;;;;5095326;28;20043;-76
2022/01/16 10:17:25;;;;;;;36.47;15.38;;;-3.30;99.90;;;;;;5096405;28;20434;-76
2022/01/16 10:20:07;;;;;;;35.95;15.75;;;-3.30;99.90;;;;;;5097748;28;20502;-76
2022/01/16 10:22:45;;;;;;;;;;;-3.20;99.90;;;;;;5098457;28;20096;-76
2022/01/16 10:25:13;;;;;;;35.65;15.90;;;-3.10;99.90;;;;;;5096393;28;19998;-76
2022/01/16 10:27:41;;;;;;;31.17;15.63;;;-3.10;99.90;;;;;;5097522;28;20393;-76
2022/01/16 10:30:12;;;;;;;30.48;13.82;;;-3.00;99.90;;;;;;5097013;28;20032;-76
2022/01/16 10:32:40;;;;;;;30.30;14.52;;;-2.90;99.90;;;;;;5097900;28;20480;-76
2022/01/16 10:35:11;;;;;;;30.20;14.82;;;-2.90;99.90;;;;;;5097694;28;20044;-76
2022/01/16 10:37:38;;;;;;;27.23;12.77;;;-2.80;99.90;;;;;;5097509;28;20020;-77
2022/01/16 10:40:09;;;;;;;21.27;11.98;;;-2.80;99.90;;;;;;5096067;28;20491;-77
2022/01/16 10:42:36;;;;;;;32.45;15.35;;;-2.70;99.90;;;;;;5097627;28;20103;-77
2022/01/16 10:45:14;;;;;;;28.55;14.95;;;-2.70;99.90;;;;;;5097205;28;20394;-77
2022/01/16 10:47:53;;;;;;;32.53;15.77;;;-2.60;99.90;;;;;;5095902;28;20499;-76
2022/01/16 10:50:39;;;;;;;32.33;14.88;;;-2.50;99.90;;;;;;5097719;28;20116;-77
2022/01/16 10:53:13;;;;;;;34.00;14.73;;;-2.40;99.90;;;;;;5096511;28;20419;-77
2022/01/16 10:55:44;;;;;;;32.50;16.77;;;-2.30;99.90;;;;;;5095718;28;20484;-77
2022/01/16 10:58:18;;;;;;;31.60;14.85;;;-2.30;99.90;;;;;;5095562;28;20032;-77
2022/01/16 11:00:52;;;;;;;33.47;15.38;;;-2.20;99.90;;;;;;5097178;28;20467;-77
2022/01/16 11:03:19;;;;;;;35.38;16.65;;;-2.10;99.90;;;;;;5096816;28;20543;-78
2022/01/16 11:05:46;;;;;;;35.22;17.05;;;-2.10;99.90;;;;;;5097387;28;20484;-78
2022/01/16 11:08:23;;;;;;;39.20;17.58;;;-1.90;99.90;;;;;;5095841;28;20031;-78
2022/01/16 11:10:51;;;;;;;39.60;18.50;;;-1.90;99.90;;;;;;5097442;28;20613;-77
2022/01/16 11:13:20;;;;;;;37.65;18.98;;;-1.90;99.90;;;;;;5097061;28;20031;-77
2022/01/16 11:15:54;;;;;;;32.85;17.08;;;-1.80;99.90;;;;;;5096910;28;20024;-77
2022/01/16 11:18:21;;;;;;;29.73;16.45;;;-1.70;99.90;;;;;;5096569;28;20024;-77
2022/01/16 11:20:56;;;;;;;33.22;15.10;;;-1.60;99.90;;;;;;5096862;28;20023;-77
2022/01/16 11:26:06;;;;;;;22.02;11.18;;;-1.50;99.90;;;;;;5096398;28;20024;-77
2022/01/16 11:28:32;;;;;;;18.42;9.40;;;-1.50;99.90;;;;;;5096691;28;20044;-76
2022/01/16 11:31:03;;;;;;;17.35;9.35;;;-1.40;99.90;;;;;;5096691;28;20024;-76
2022/01/16 11:33:30;;;;;;;20.88;9.30;;;-1.40;99.90;;;;;;5096553;28;20497;-76
2022/01/16 11:36:18;;;;;;;20.60;10.48;;;-1.30;99.90;;;;;;5096493;28;20511;-74
2022/01/16 11:38:50;;;;;;;25.48;11.30;;;-1.20;99.90;;;;;;5095848;28;20433;-74
2022/01/16 11:41:31;;;;;;;47.35;18.33;;;-1.10;99.90;;;;;;5096384;28;20024;-77
2022/01/16 11:43:58;;;;;;;20.97;10.07;;;-1.00;99.90;;;;;;5096211;28;20028;-75
2022/01/16 11:46:31;;;;;;;17.40;9.18;;;-1.00;99.90;;;;;;5094666;28;20269;-74
2022/01/16 11:49:01;;;;;;;25.00;12.68;;;-0.90;99.90;;;;;;5094826;28;20476;-75
2022/01/16 11:51:36;;;;;;;32.25;14.60;;;-0.90;99.90;;;;;;5094751;28;20032;-75
2022/01/16 11:54:01;;;;;;;30.77;15.18;;;-0.80;99.90;;;;;;5096307;28;20107;-75
2022/01/16 11:56:40;;;;;;;35.50;15.18;;;-0.70;99.90;;;;;;5095290;28;20048;-74
2022/01/16 11:59:11;;;;;;;74.80;27.98;;;-0.60;99.90;;;;;;5094493;28;20048;-75
2022/01/16 12:01:46;;;;;;;60.00;22.80;;;-0.50;99.90;;;;;;5095232;28;20066;-77
2022/01/16 12:04:30;;;;;;;72.85;26.60;;;-0.50;99.90;;;;;;5095198;28;20492;-76
2022/01/16 12:07:15;;;;;;;53.47;21.30;;;-0.40;99.90;;;;;;5096222;28;20028;-75
2022/01/16 12:09:53;;;;;;;39.70;18.05;;;-0.40;99.90;;;;;;5096305;28;20024;-75
2022/01/16 12:12:18;;;;;;;45.88;20.20;;;-0.30;99.90;;;;;;5096557;28;20501;-75
2022/01/16 12:14:51;;;;;;;35.60;16.30;;;-0.20;99.90;;;;;;5096486;28;20109;-75
2022/01/16 12:17:39;;;;;;;40.55;17.25;;;-0.10;99.90;;;;;;5095593;28;20016;-75
2022/01/16 12:20:20;;;;;;;32.03;13.70;;;0.00;99.90;;;;;;5096187;28;20119;-75
2022/01/16 12:22:46;;;;;;;40.78;18.35;;;0.10;99.90;;;;;;5094209;28;20084;-75
2022/01/16 12:25:20;;;;;;;36.42;17.15;;;0.10;99.90;;;;;;5094060;28;20032;-75
2022/01/16 12:27:51;;;;;;;35.92;16.23;;;0.20;99.90;;;;;;5095125;28;20028;-75
2022/01/16 12:30:33;;;;;;;26.63;14.05;;;0.20;99.90;;;;;;5095771;28;20421;-75
2022/01/16 12:33:08;;;;;;;28.88;13.82;;;0.30;99.90;;;;;;5093913;28;20031;-75
2022/01/16 12:35:55;;;;;;;27.33;12.88;;;0.30;99.90;;;;;;5094051;28;20494;-75
2022/01/16 12:38:25;;;;;;;28.55;14.80;;;0.40;99.90;;;;;;5092989;28;20124;-75
2022/01/16 12:41:09;;;;;;;26.17;14.03;;;0.50;99.90;;;;;;5095278;28;20063;-75
2022/01/16 12:43:41;;;;;;;26.08;14.18;;;0.50;99.90;;;;;;5095632;28;20106;-76
2022/01/16 12:46:09;;;;;;;24.67;13.45;;;0.60;99.90;;;;;;5093642;28;20069;-75
2022/01/16 12:48:44;;;;;;;27.98;13.93;;;0.70;99.90;;;;;;5095240;28;20020;-75
2022/01/16 12:51:10;;;;;;;25.92;13.57;;;0.70;99.90;;;;;;5095424;28;20024;-76
2022/01/16 12:53:38;;;;;;;49.55;19.10;;;0.80;99.90;;;;;;5094830;28;20024;-76
2022/01/16 12:56:23;;;;;;;37.15;17.48;;;0.90;99.90;;;;;;5094699;28;20027;-75
2022/01/16 12:58:52;;;;;;;32.47;15.23;;;1.00;99.90;;;;;;5094706;28;20488;-75
2022/01/16 13:01:18;;;;;;;27.65;12.38;;;1.10;99.90;;;;;;5093393;28;20035;-75
2022/01/16 13:03:45;;;;;;;20.17;12.18;;;1.10;99.90;;;;;;5094552;28;20111;-75
2022/01/16 13:06:27;;;;;;;26.05;13.70;;;1.20;99.90;;;;;;5094542;28;20426;-76
2022/01/16 13:09:13;;;;;;;22.52;12.65;;;1.30;99.90;;;;;;5094591;28;20027;-76
2022/01/16 13:11:41;;;;;;;26.17;12.20;;;1.30;99.90;;;;;;5094602;28;20369;-76
2022/01/16 13:14:10;;;;;;;23.55;12.18;;;1.40;99.90;;;;;;5093357;28;20058;-75
2022/01/16 13:16:42;;;;;;;28.75;13.55;;;1.50;99.90;;;;;;5094756;28;20125;-76
2022/01/16 13:19:14;;;;;;;26.67;12.55;;;1.50;99.90;;;;;;5094600;28;20028;-76
2022/01/16 13:24:44;;;;;;;30.33;13.40;;;1.70;99.90;;;;;;5094346;28;20054;-76